Details From OIFM - Esfahan Shahid Beheshti Intl
To OIBB - Bushehr
Flight Number -
Tags Generated
Created
Modified
Stats Distance 233 nm / 432 km
Max Altitude 0 ft / 0 m
Waypoints 3
Social Downloads 0
Likes 0
Share VATSIM

Download

Looking for another format? Having issues loading an existing format? Contact us
Advertisement - Login to hide

Notes

Generated

Route

OIFM BUZ OIBB

ID Type Via Altitude Latitude Longitude Leg Dist Tot Dist Heading (true) Name
O OIFM APT - 0 ft / 0 m 32.74469˚ 51.83886˚ - 0 nm - -
BUZ NDB - 0 ft / 0 m 28.96225˚ 50.82275˚ 233 nm 233 nm 193° / 193° BUSHEHR NDB
O OIBB APT - 0 ft / 0 m 28.95914˚ 50.81841˚ 0 nm 233 nm 231° / 231° -

Altitude Profile

Advertisement - Login to hide

Weather


0- 5 10 15 20 25 30 35+ Temperature / ° C

Clouds and Precipitation
Forecast for 2017-12-14 18:00 UTC. Updated 6 minutes ago

Ground ~20,000 ft ~40,000 ft Winds

OIFM

Details ICAO OIFM
Name ESFAHAN SHAHID BEHESHTI INTL
Region Iran
Timezone Asia/Tehran (UTC+3.5)
Stats Elevation 5,059 ft / 1,542 m (AMSL)
Location 32.750857° 51.861286°
Runways 2
Magnetic Variation 3.939° E

METAR

OIFM 141500Z 14004KT CAVOK 08/M14 Q1018 A3008

Decode

TAF

TAF OIFM 141110Z 1412/1518 06004MPS CAVOK TEMPO 1415/1424 FEW035CB SCT040 SCT100 TEMPO 1512/1518 21005MPS 5000 SHRA FEW030CB SCT035 BKN100

Decode

Departure Runways

ID Width Length Bearing (true) Bearing (mag) Surface Threshold Offset Overrun Length
08L 148 ft / 45 m 14,402 ft / 4,390 m 77.88° 73.94° Asphalt 0 ft / 0 m 1,188 ft / 362 m
08R 148 ft / 45 m 14,401 ft / 4,390 m 77.88° 73.94° Asphalt 0 ft / 0 m 1,184 ft / 361 m
26L 148 ft / 45 m 14,401 ft / 4,390 m 257.90° 253.96° Asphalt 0 ft / 0 m 1,181 ft / 360 m
26R 148 ft / 45 m 14,402 ft / 4,390 m 257.90° 253.96° Asphalt 0 ft / 0 m 1,184 ft / 361 m

OIBB

Details ICAO OIBB (BUZ)
Name BUSHEHR
Region Iran
Timezone Asia/Tehran (UTC+3.5)
Stats Elevation 68 ft / 21 m (AMSL)
Location 28.944853° 50.834626°
Runways 2
Magnetic Variation 3.223° E

METAR

OIBB 141500Z 14006KT CAVOK 19/13 Q1015 A2999

Decode

TAF

Not found

Destination Runways

ID Width Length Bearing (true) Bearing (mag) Surface Threshold Offset Overrun Length
13L 148 ft / 45 m 14,673 ft / 4,472 m 132.11° 128.89° Asphalt 0 ft / 0 m 970 ft / 296 m
13R 148 ft / 45 m 14,673 ft / 4,473 m 132.12° 128.90° Asphalt 0 ft / 0 m 984 ft / 300 m
31L 148 ft / 45 m 14,673 ft / 4,473 m 312.13° 308.91° Asphalt 0 ft / 0 m 987 ft / 301 m
31R 148 ft / 45 m 14,673 ft / 4,472 m 312.13° 308.91° Asphalt 0 ft / 0 m 982 ft / 299 m

Popular Alternatives